Flight Track Log - Related Links

Times and Time Zones

All times are in EDT time to prevent confusion due to time zone crossing. See the N4295R flight status page for this flight to view local times or setup timezone preferences in your user account.

Time Position Orientation Groundspeed Altitude Reporting Facility
EDT Latitude Longitude Course Direction KTS MPH feet Rate Location/Type
Sun 01:11:21 PM 41.2053 -76.8933 242° Southwest 122 140 3,200  Level New York Center
Sun 01:12:18 PM 41.1908 -76.9278 241° Southwest 110 127 3,800 610 Climbing New York Center
Sun 01:13:19 PM 41.1767 -76.9625 242° Southwest 110 127 4,400 600 Climbing New York Center
Sun 01:14:18 PM 41.1603 -76.9939 235° Southwest 105 121 5,000 555 Climbing New York Center
Sun 01:15:00 PM 41.1043 -77.0935 229° Southwest  Level FlightAware Approximate
Sun 01:15:18 PM 41.1461 -77.0258 240° Southwest 105 121 5,500  Level New York Center
Sun 01:16:19 PM 41.1300 -77.0572 236° Southwest 105 121 6,000 248 Climbing New York Center
Sun 01:17:19 PM 41.1136 -77.0917 238° Southwest 105 121 6,000  Level New York Center
Sun 01:18:20 PM 41.0967 -77.1342 242° Southwest 118 136 6,000  Level New York Center
Sun 01:19:20 PM 41.0758 -77.1733 235° Southwest 123 142 6,000  Level New York Center
Sun 01:20:18 PM 41.0508 -77.2097 228° Southwest 136 157 6,000  Level New York Center
Sun 01:21:18 PM 41.0303 -77.2461 233° Southwest 141 162 6,000  Level New York Center
Sun 01:22:19 PM 41.0033 -77.2822 225° Southwest 141 162 6,000  Level New York Center
Sun 01:23:20 PM 40.9825 -77.3186 233° Southwest 141 162 6,000  Level New York Center
Sun 01:24:19 PM 40.9622 -77.3442 224° Southwest 136 157 6,000  Level New York Center
Sun 01:25:19 PM 40.9369 -77.3858 231° Southwest 131 151 6,000 -50 Level New York Center
Sun 01:26:20 PM 40.9097 -77.4269 229° Southwest 131 151 5,900  Descending New York Center
Sun 01:27:18 PM 40.8828 -77.4628 225° Southwest 136 157 6,000 102 Climbing New York Center
Sun 01:28:18 PM 40.8597 -77.4989 230° Southwest 136 157 6,100  Climbing New York Center
Sun 01:29:20 PM 40.8347 -77.5350 228° Southwest 136 157 6,000 -98 Descending New York Center
Sun 01:30:21 PM 40.8119 -77.5683 228° Southwest 136 157 5,900  Descending New York Center
Sun 01:31:18 PM 40.7869 -77.6042 227° Southwest 136 157 6,000 50 Climbing New York Center
Sun 01:32:20 PM 40.7664 -77.6378 231° Southwest 131 151 6,000 49 Level New York Center
Sun 01:33:20 PM 40.7436 -77.6711 228° Southwest 131 151 6,100  Climbing New York Center
Sun 01:34:20 PM 40.7186 -77.7069 227° Southwest 131 151 6,000 -50 Descending New York Center
Sun 01:35:19 PM 40.6936 -77.7400 225° Southwest 131 151 6,000 39 Level New York Center
Sun 01:36:54 PM 40.6586 -77.8022 233° Southwest 125 144 6,100  Climbing Cleveland Center
Sun 01:37:55 PM 40.6347 -77.8414 231° Southwest 126 145 6,000 -49 Descending Cleveland Center
Sun 01:38:56 PM 40.6253 -77.8831 253° West 134 154 6,000  Level Cleveland Center
Sun 01:39:56 PM 40.6097 -77.9300 246° West 133 153 6,000  Level Cleveland Center
Sun 01:40:57 PM 40.5917 -77.9692 239° Southwest 128 147 6,000  Level Cleveland Center
Sun 01:41:57 PM 40.5783 -78.0161 250° West 127 146 6,000  Level Cleveland Center
Sun 01:42:58 PM 40.5625 -78.0578 243° Southwest 130 150 6,000 -148 Level Cleveland Center
Sun 01:43:59 PM 40.5447 -78.1019 242° Southwest 131 151 5,700 -446 Descending Cleveland Center
Sun 01:44:59 PM 40.5311 -78.1464 248° West 140 161 5,100 -694 Descending Cleveland Center
Sun 01:46:00 PM 40.5111 -78.1908 239° Southwest 136 157 4,300 -393 Descending Cleveland Center
Sun 01:47:01 PM 40.4953 -78.2322 243° Southwest 128 147 4,300  Level Cleveland Center
Sun 01:48:01 PM 40.4708 -78.2606 221° Southwest 119 137 4,300  Level Cleveland Center
Sun 01:50:00 PM 40.4030 -78.2718 196° South  Level FlightAware Approximate
Sun 01:57:00 PM 40.2964 -78.3200 196° South  Level Estimated
Sun 01:58:00 PM 40.2964 -78.3200 196° South  Level Estimated

Login

Don't have an account? Register now (free) for customized features, flight alerts, and more!